CheckWX is a tool to help pilots better visualize weather data.  It is not intended as a substitute for an official pre-flight weather briefing.

22:52:41 UTC

EKOD METAR
Odense Airport
Odense, Denmark
Current

8 hours ago

EKOD 241450Z 27011G23KT 210V340 9999 FEW025 SCT032 BKN038 13/10 Q1019
Observed
May-24 @ 14:50 UTC
Wind
  • 270° at 11 KTS
  • Gusting to 23 KTS
Visibility
10,000+ meters
Flight Rules
VFR
Cloud Levels
  • Few at 2,500' AGL
  • Scattered at 3,200' AGL
  • Broken at 3,800' AGL
Temperature
13°C / 55°F
Dewpoint
10°C / 50°F
Humidity
82%
Altimeter
30.09" Hg
Pressure
1018.92 hPa
Previous

9 hours ago

EKOD 241350Z 26012KT 160V320 9999 FEW029 SCT036 BKN050 13/10 Q1019
Observed
May-24 @ 13:50 UTC
Wind
  • 260° at 12 KTS
Visibility
10,000+ meters
Flight Rules
VFR
Cloud Levels
  • Few at 2,900' AGL
  • Scattered at 3,600' AGL
  • Broken at 5,000' AGL
Temperature
13°C / 55°F
Dewpoint
10°C / 50°F
Humidity
82%
Altimeter
30.09" Hg
Pressure
1018.92 hPa
Previous

10 hours ago

EKOD 241250Z 26012KT 200V340 9999 FEW032 SCT049 BKN050 13/10 Q1018
Observed
May-24 @ 12:50 UTC
Wind
  • 260° at 12 KTS
Visibility
10,000+ meters
Flight Rules
VFR
Cloud Levels
  • Few at 3,200' AGL
  • Scattered at 4,900' AGL
  • Broken at 5,000' AGL
Temperature
13°C / 55°F
Dewpoint
10°C / 50°F
Humidity
82%
Altimeter
30.06" Hg
Pressure
1017.92 hPa